首页
METAR-TAF:

METAR-TAF

机场 :

實里達機場

新加坡, 新加坡

纬度: 01-25-08N, 经度: 103-51-57E, 海拔: 11米

当前天气观测

该预报发布于37分钟前的02:00 UTC
风速7节,风向西南,在西之间变化
温度 25°C
湿度 89%
气压 1012 hPa
能見度: 8000
少量云层高于1400英尺
阴天层高于16000英尺
雨,

METAR: WSSL 220200Z 23007KT 190V260 8000 RA FEW014 OVC160 25/23 Q1012

时间: 10:37 (02:37 UTC)

预报

该预报发布于3小时和37分钟前的23:00 UTC
预报有效从22日的 00点(UTC)到 23日的 06点(UTC)
风速12节,风向
能见度10公里或以上
少量云层高于1500英尺
散云层高于2000英尺

TAF: WSSL 212300Z 2200/2306 17012KT 9999 FEW015 SCT020

超过4000个机场的气象观测和天气预报(METAR&TAF报告)。

可查询的气象台以黄色和红色小点在地图上表示。

将鼠标移到小点上方,可查看气象台名称。

然后点击查看天气观测和预报。

如需切换地图:点击带黑十字的绿色按钮放大地图;点击带横线的绿色按钮缩小地图;或者点击绿色箭头查看邻近地区的地图。


METAR-TAF: